Terminal Aerodrome Forecast
Issued by NWS North Platte, NE

Home | Current Version | Previous Version | Graphics & Text | Print | Product List | Glossary On
Versions: 1 2 3 4 5 6 7 8 9 10 11 12 13 14 15 16 17 18 19 20 21 22
000
FTUS43 KLBF 061100 RRA
TAFVTN
TAF
KVTN 061152Z 0612/0712 35012G19KT P6SM FEW009 BKN013 OVC016
      TEMPO 0612/0614 5SM -SHRA BR BKN008 OVC015
     FM061600 35015G20KT P6SM SCT015 OVC025
     FM061800 36014G21KT P6SM SCT015 OVC050
     FM070000 02011KT P6SM SCT100=

USA.gov is the U.S. government's official web portal to all federal, state and local government web resources and services.